Alexandria Bay, New York
Current Conditions -  °F | °C
As of 5:58 AM on Thursday 23 Oct 2014 (Local Time) from KGTB Reporting Station
Clear Clear  
Wind Chill: 34°   Ceiling: Unl
Heat Index: 41°   Visibility: 10mi
Dew Point: 35°   Wind: 12mph
Humidity: 79%   Direction: 20°NNE
Pressure: 30.04"   Gusts: NA
Location:  44.34°N, 75.92°W
Report Text: KGTB 230958Z AUTO 02010KT 10SM CLR 05/02 A3004 RMK AO2 SLP177 T00490015
Loading
Personal Weather Stations






























Interactive Weather Map
Tropical Storm Tracking
New forecast layout! Learn more

10-Day Weather Forecast

Advertisements
Track Severe Weather on mobile